Nicollet, Minnesota
Current Conditions -  °F | °C
As of 9:15 PM on Sunday 21 Dec 2014 (Local Time) from KMKT Reporting Station
Overcast Overcast  
Wind Chill: 30°   Ceiling: 600
Heat Index: 37°   Visibility: 5mi
Dew Point: 34°   Wind: 12mph
Humidity: 87%   Direction: 180°S
Pressure: 29.7"   Gusts: NA
Location:  44.28°N, 94.19°W
Report Text: KMKT 220315Z AUTO 18010KT 5SM OVC006 03/01 A2970 RMK AO1
Loading
Personal Weather Stations






























Interactive Weather Map New forecast layout! Learn more

10-Day Weather Forecast

Advertisements
Track Severe Weather on mobile